Time;durP1;ratioP1;P1;durP2;ratioP2;P2;SDS_P1;SDS_P2;PMS_P1;PMS_P2;Temp;Humidity;BMP_temperature;BMP_pressure;BME280_temperature;BME280_humidity;BME280_pressure;Samples;Min_cycle;Max_cycle;Signal;HPM_P1;HPM_P2
2022/03/19 00:00:21;;;;;;;0.10;0.00;;;5.90;99.90;;;;;;5047331;28;20359;-78
2022/03/19 00:02:47;;;;;;;0.00;0.00;;;5.90;99.90;;;;;;5037436;28;20482;-78
2022/03/19 00:05:13;;;;;;;0.30;0.30;;;5.90;99.90;;;;;;5041965;28;20900;-78
2022/03/19 00:07:42;;;;;;;0.00;0.00;;;5.80;99.90;;;;;;5057771;28;20445;-78
2022/03/19 00:10:09;;;;;;;0.63;0.22;;;5.80;99.90;;;;;;5044255;28;20159;-78
2022/03/19 00:12:39;;;;;;;0.10;0.10;;;5.80;99.90;;;;;;5063193;28;20040;-78
2022/03/19 00:15:06;;;;;;;0.05;0.05;;;5.70;99.90;;;;;;5046730;28;20516;-78
2022/03/19 00:17:31;;;;;;;0.00;0.00;;;5.70;99.90;;;;;;5025436;28;20052;-78
2022/03/19 00:19:57;;;;;;;1.45;0.17;;;5.60;99.90;;;;;;5042653;28;20041;-78
2022/03/19 00:22:23;;;;;;;1.42;0.20;;;5.60;99.90;;;;;;5045858;28;20040;-78
2022/03/19 00:24:48;;;;;;;0.22;0.20;;;5.60;99.90;;;;;;5061221;28;20112;-78
2022/03/19 00:27:14;;;;;;;0.00;0.00;;;5.60;99.90;;;;;;5041497;28;20033;-78
2022/03/19 00:29:40;;;;;;;0.00;0.00;;;5.60;99.90;;;;;;5025853;28;20128;-78
2022/03/19 00:32:05;;;;;;;0.00;0.00;;;5.60;99.90;;;;;;5040202;28;20166;-78
2022/03/19 00:34:32;;;;;;;0.00;0.00;;;5.60;99.90;;;;;;5042076;28;20447;-78
2022/03/19 00:36:58;;;;;;;1.95;0.47;;;5.60;99.90;;;;;;5042856;28;20037;-78
2022/03/19 00:39:24;;;;;;;0.03;0.03;;;5.60;99.90;;;;;;5047606;28;20041;-78
2022/03/19 00:41:50;;;;;;;0.30;0.05;;;5.50;99.90;;;;;;5043002;28;20041;-78
2022/03/19 00:44:16;;;;;;;0.00;0.00;;;5.50;99.90;;;;;;5030958;28;20164;-78
2022/03/19 00:46:41;;;;;;;0.00;0.00;;;5.50;99.90;;;;;;5039207;28;20045;-78
2022/03/19 00:49:07;;;;;;;0.03;0.03;;;5.50;99.90;;;;;;5058755;28;20040;-78
2022/03/19 00:51:36;;;;;;;0.28;0.28;;;5.50;99.90;;;;;;5034079;28;20794;-78
2022/03/19 00:54:02;;;;;;;1.35;0.38;;;5.50;99.90;;;;;;5042354;28;20052;-79
2022/03/19 00:56:28;;;;;;;0.03;0.03;;;5.50;99.90;;;;;;5041219;28;20540;-78
2022/03/19 00:58:54;;;;;;;0.00;0.00;;;5.50;99.90;;;;;;5028374;28;20166;-78
2022/03/19 01:01:20;;;;;;;0.25;0.20;;;5.50;99.90;;;;;;5060007;28;20119;-78
2022/03/19 01:03:45;;;;;;;0.00;0.00;;;5.50;99.90;;;;;;5043652;28;20128;-78
2022/03/19 01:06:11;;;;;;;0.20;0.20;;;5.50;99.90;;;;;;5042864;28;20056;-78
2022/03/19 01:08:37;;;;;;;0.13;0.00;;;5.50;99.90;;;;;;5052962;28;20052;-78
2022/03/19 01:11:03;;;;;;;0.43;0.28;;;5.50;99.90;;;;;;5044690;28;20033;-78
2022/03/19 01:13:28;;;;;;;0.00;0.00;;;5.40;99.90;;;;;;5045770;28;20029;-78
2022/03/19 01:15:54;;;;;;;1.27;0.45;;;5.40;99.90;;;;;;5044941;28;20130;-78
2022/03/19 01:18:19;;;;;;;0.00;0.00;;;5.40;99.90;;;;;;5043847;28;20103;-78
2022/03/19 01:20:45;;;;;;;0.80;0.38;;;5.40;99.90;;;;;;5042652;28;20044;-78
2022/03/19 01:23:11;;;;;;;0.00;0.00;;;5.40;99.90;;;;;;5040535;28;20053;-78
2022/03/19 01:25:36;;;;;;;0.00;0.00;;;5.40;99.90;;;;;;5026155;28;20037;-78
2022/03/19 01:28:02;;;;;;;0.17;0.10;;;5.30;99.90;;;;;;5025147;28;20047;-78
2022/03/19 01:30:28;;;;;;;0.10;0.10;;;5.40;99.90;;;;;;5024479;28;20057;-78
2022/03/19 01:32:53;;;;;;;0.00;0.00;;;5.30;99.90;;;;;;5023611;28;20048;-78
2022/03/19 01:35:20;;;;;;;0.20;0.20;;;5.30;99.90;;;;;;5026407;28;20428;-79
2022/03/19 01:37:46;;;;;;;0.10;0.10;;;5.30;99.90;;;;;;5041623;28;20036;-79
2022/03/19 01:40:13;;;;;;;0.00;0.00;;;5.30;99.90;;;;;;5028123;28;20326;-79
2022/03/19 01:42:45;;;;;;;0.00;0.00;;;5.30;99.90;;;;;;5038435;28;20398;-78
2022/03/19 01:45:15;;;;;;;0.00;0.00;;;5.30;99.90;;;;;;5038675;28;20052;-78
2022/03/19 01:47:41;;;;;;;0.00;0.00;;;5.30;99.90;;;;;;5040894;28;20527;-78
2022/03/19 01:50:09;;;;;;;3.25;0.63;;;5.30;99.90;;;;;;5041488;28;20044;-78
2022/03/19 01:52:35;;;;;;;0.00;0.00;;;5.30;99.90;;;;;;5041428;28;20176;-78
2022/03/19 01:55:02;;;;;;;0.00;0.00;;;5.20;99.90;;;;;;5043716;28;20085;-79
2022/03/19 01:57:34;;;;;;;0.00;0.00;;;5.20;99.90;;;;;;5042328;28;20028;-78
2022/03/19 02:00:03;;;;;;;0.00;0.00;;;5.20;99.90;;;;;;5039374;28;20075;-78
2022/03/19 02:02:28;;;;;;;0.00;0.00;;;5.10;99.90;;;;;;5059708;28;20091;-78
2022/03/19 02:04:54;;;;;;;0.00;0.00;;;5.10;99.90;;;;;;5044680;28;20241;-78
2022/03/19 02:07:20;;;;;;;0.10;0.10;;;5.10;99.90;;;;;;5042500;28;20403;-78
2022/03/19 02:09:46;;;;;;;0.13;0.10;;;5.10;99.90;;;;;;5039595;28;20045;-79
2022/03/19 02:12:11;;;;;;;0.10;0.10;;;5.10;99.90;;;;;;5027901;28;20037;-78
2022/03/19 02:14:38;;;;;;;0.00;0.00;;;5.10;99.90;;;;;;5040487;28;20443;-78
2022/03/19 02:17:06;;;;;;;0.00;0.00;;;5.10;99.90;;;;;;5058505;28;20049;-78
2022/03/19 02:19:32;;;;;;;0.00;0.00;;;5.10;99.90;;;;;;5024109;28;20064;-78
2022/03/19 02:21:59;;;;;;;0.00;0.00;;;5.10;99.90;;;;;;5022830;28;20033;-79
2022/03/19 02:27:09;;;;;;;0.75;0.28;;;5.00;99.90;;;;;;5041457;28;20687;-79
2022/03/19 02:29:35;;;;;;;0.10;0.10;;;5.00;99.90;;;;;;5023640;28;20044;-78
2022/03/19 02:32:03;;;;;;;0.00;0.00;;;5.00;99.90;;;;;;5039798;28;21702;-78
2022/03/19 02:34:30;;;;;;;0.00;0.00;;;5.00;99.90;;;;;;5040254;28;20533;-78
2022/03/19 02:36:55;;;;;;;0.00;0.00;;;5.00;99.90;;;;;;5040416;28;20561;-78
2022/03/19 02:39:33;;;;;;;0.00;0.00;;;5.00;99.90;;;;;;5025493;28;20112;-78
2022/03/19 02:42:02;;;;;;;1.08;0.47;;;5.00;99.90;;;;;;5058951;28;20037;-78
2022/03/19 02:44:28;;;;;;;0.00;0.00;;;5.00;99.90;;;;;;5021666;28;20033;-78
2022/03/19 02:47:02;;;;;;;0.90;0.28;;;5.00;99.90;;;;;;5058261;28;20101;-78
2022/03/19 02:49:28;;;;;;;0.10;0.10;;;5.00;99.90;;;;;;5060242;28;20040;-78
2022/03/19 02:51:55;;;;;;;0.00;0.00;;;4.90;99.90;;;;;;5041952;28;20376;-78
2022/03/19 02:54:23;;;;;;;0.00;0.00;;;4.90;99.90;;;;;;5060253;28;20060;-78
2022/03/19 02:56:49;;;;;;;0.93;0.20;;;4.90;99.90;;;;;;5024758;28;20137;-78
2022/03/19 02:59:26;;;;;;;0.38;0.35;;;4.90;99.90;;;;;;5022127;28;20446;-79
2022/03/19 03:01:54;;;;;;;0.00;0.00;;;4.90;99.90;;;;;;5035438;28;20527;-78
2022/03/19 03:04:21;;;;;;;0.00;0.00;;;4.90;99.90;;;;;;5057597;28;20041;-78
2022/03/19 03:06:49;;;;;;;0.00;0.00;;;4.80;99.90;;;;;;5055921;28;20395;-78
2022/03/19 03:09:17;;;;;;;0.17;0.17;;;4.80;99.90;;;;;;5023792;28;20444;-78
2022/03/19 03:11:43;;;;;;;0.00;0.00;;;4.80;99.90;;;;;;5043480;28;20752;-78
2022/03/19 03:14:09;;;;;;;0.00;0.00;;;4.70;99.90;;;;;;5055790;28;20055;-78
2022/03/19 03:16:35;;;;;;;0.55;0.35;;;4.70;99.90;;;;;;5039872;28;20106;-78
2022/03/19 03:19:02;;;;;;;0.00;0.00;;;4.60;99.90;;;;;;5055553;28;20029;-79
2022/03/19 03:21:28;;;;;;;0.00;0.00;;;4.50;99.90;;;;;;5039386;28;20041;-78
2022/03/19 03:23:55;;;;;;;0.00;0.00;;;4.50;99.90;;;;;;5039252;28;20331;-78
2022/03/19 03:26:21;;;;;;;0.15;0.15;;;4.50;99.90;;;;;;5037979;28;20517;-78
2022/03/19 03:28:46;;;;;;;1.30;0.38;;;4.50;99.90;;;;;;5058586;28;20068;-78
2022/03/19 03:31:12;;;;;;;0.20;0.20;;;4.50;99.90;;;;;;5054806;28;20076;-78
2022/03/19 03:33:38;;;;;;;0.22;0.20;;;4.40;99.90;;;;;;5039115;28;20042;-78
2022/03/19 03:36:04;;;;;;;0.00;0.00;;;4.40;99.90;;;;;;5038592;28;20036;-78
2022/03/19 03:38:30;;;;;;;0.00;0.00;;;4.30;99.90;;;;;;5038428;28;20029;-78
2022/03/19 03:40:56;;;;;;;0.15;0.05;;;4.30;99.90;;;;;;5059787;28;20513;-78
2022/03/19 03:43:22;;;;;;;0.00;0.00;;;4.20;99.90;;;;;;5060911;28;20065;-78
2022/03/19 03:45:47;;;;;;;0.00;0.00;;;4.20;99.90;;;;;;5026927;28;20059;-78
2022/03/19 03:48:13;;;;;;;0.00;0.00;;;4.10;99.90;;;;;;5044925;28;20032;-78
2022/03/19 03:50:39;;;;;;;0.38;0.22;;;4.10;99.90;;;;;;5047120;28;20044;-78
2022/03/19 03:53:06;;;;;;;1.00;0.43;;;4.10;99.90;;;;;;5054097;28;20094;-78
2022/03/19 03:55:33;;;;;;;4.60;0.57;;;4.10;99.90;;;;;;5061090;28;20501;-78
2022/03/19 03:58:04;;;;;;;0.00;0.00;;;4.00;99.90;;;;;;5041068;28;20037;-78
2022/03/19 04:00:30;;;;;;;0.00;0.00;;;4.00;99.90;;;;;;5042633;28;20502;-78
2022/03/19 04:02:56;;;;;;;0.00;0.00;;;4.00;99.90;;;;;;5041845;28;20448;-78
2022/03/19 04:05:22;;;;;;;0.00;0.00;;;4.00;99.90;;;;;;5042087;28;20322;-78
2022/03/19 04:07:48;;;;;;;0.10;0.10;;;4.00;99.90;;;;;;5029563;28;20490;-78
2022/03/19 04:10:14;;;;;;;0.00;0.00;;;3.90;99.90;;;;;;5043508;28;20043;-78
2022/03/19 04:12:40;;;;;;;2.55;0.30;;;3.90;99.90;;;;;;5039709;28;20041;-78
2022/03/19 04:15:06;;;;;;;0.20;0.20;;;3.80;99.90;;;;;;5030653;28;20049;-78
2022/03/19 04:17:33;;;;;;;0.10;0.10;;;3.80;99.90;;;;;;5061364;28;20514;-79
2022/03/19 04:19:58;;;;;;;0.00;0.00;;;3.80;99.90;;;;;;5028214;28;20033;-78
2022/03/19 04:22:31;;;;;;;0.20;0.20;;;3.70;99.90;;;;;;5059953;28;20477;-78
2022/03/19 04:24:57;;;;;;;0.00;0.00;;;3.70;99.90;;;;;;5041889;28;20037;-78
2022/03/19 04:27:23;;;;;;;0.00;0.00;;;3.70;99.90;;;;;;5041683;28;20098;-78
2022/03/19 04:29:49;;;;;;;0.00;0.00;;;3.70;99.90;;;;;;5028083;28;20053;-78
2022/03/19 04:32:14;;;;;;;0.00;0.00;;;3.70;99.90;;;;;;5039871;28;20069;-78
2022/03/19 04:34:40;;;;;;;0.10;0.10;;;3.60;99.90;;;;;;5026609;28;20075;-78
2022/03/19 04:37:05;;;;;;;0.00;0.00;;;3.60;99.90;;;;;;5041202;28;20041;-78
2022/03/19 04:39:31;;;;;;;0.55;0.43;;;3.60;99.90;;;;;;5027693;28;20041;-78
2022/03/19 04:41:57;;;;;;;0.13;0.13;;;3.60;99.90;;;;;;5060614;28;20041;-78
2022/03/19 04:44:22;;;;;;;0.00;0.00;;;3.60;99.90;;;;;;5057641;28;20037;-78
2022/03/19 04:46:48;;;;;;;0.25;0.25;;;3.60;99.90;;;;;;5042220;28;20037;-78
2022/03/19 04:49:14;;;;;;;0.20;0.15;;;3.60;99.90;;;;;;5040960;28;20037;-78
2022/03/19 04:51:40;;;;;;;0.10;0.10;;;3.60;99.90;;;;;;5041992;28;20037;-78
2022/03/19 04:54:06;;;;;;;0.03;0.03;;;3.60;99.90;;;;;;5043518;28;20902;-78
2022/03/19 04:56:32;;;;;;;0.28;0.20;;;3.60;99.90;;;;;;5042413;28;20094;-78
2022/03/19 04:59:00;;;;;;;2.35;0.63;;;3.60;99.90;;;;;;5029697;28;20041;-78
2022/03/19 05:01:31;;;;;;;0.00;0.00;;;3.70;99.90;;;;;;5044338;28;20067;-78
2022/03/19 05:03:57;;;;;;;0.20;0.20;;;3.70;99.90;;;;;;5027606;28;20561;-78
2022/03/19 05:06:22;;;;;;;0.10;0.00;;;3.70;99.90;;;;;;5043414;28;20730;-78
2022/03/19 05:11:12;;;;;;;0.90;0.43;;;3.80;99.90;;;;;;5041756;28;20098;-78
2022/03/19 05:11:37;;;;;;;0.00;0.00;;;3.80;99.90;;;;;;5041810;28;20105;-78
2022/03/19 05:14:04;;;;;;;0.00;0.00;;;3.80;99.90;;;;;;5044198;28;20049;-78
2022/03/19 05:16:31;;;;;;;0.00;0.00;;;3.90;99.90;;;;;;5024594;28;20049;-78
2022/03/19 05:18:56;;;;;;;0.00;0.00;;;3.90;99.90;;;;;;5027512;28;20029;-78
2022/03/19 05:21:22;;;;;;;0.10;0.10;;;3.90;99.90;;;;;;5041600;28;20029;-78
2022/03/19 05:23:47;;;;;;;0.10;0.10;;;4.00;99.90;;;;;;5041785;28;20063;-78
2022/03/19 05:26:13;;;;;;;0.00;0.00;;;4.00;99.90;;;;;;5060370;28;20041;-78
2022/03/19 05:28:39;;;;;;;0.00;0.00;;;4.00;99.90;;;;;;5042113;28;20048;-78
2022/03/19 05:31:07;;;;;;;1.13;0.65;;;4.00;99.90;;;;;;5041828;28;20072;-79
2022/03/19 05:36:16;;;;;;;0.00;0.00;;;4.00;99.90;;;;;;5042784;28;20116;-78
2022/03/19 05:38:42;;;;;;;0.40;0.35;;;4.00;99.90;;;;;;5060904;28;20127;-78
2022/03/19 05:41:08;;;;;;;0.10;0.08;;;4.00;99.90;;;;;;5044890;28;20503;-78
2022/03/19 05:43:34;;;;;;;0.43;0.28;;;4.00;99.90;;;;;;5023122;28;20099;-78
2022/03/19 05:45:59;;;;;;;0.10;0.10;;;4.00;99.90;;;;;;5025771;28;20144;-79
2022/03/19 05:48:25;;;;;;;0.10;0.10;;;4.00;99.90;;;;;;5038720;28;20041;-78
2022/03/19 05:50:51;;;;;;;0.10;0.10;;;4.00;99.90;;;;;;5043468;28;20415;-78
2022/03/19 05:53:16;;;;;;;0.10;0.10;;;4.00;99.90;;;;;;5022519;28;20049;-78
2022/03/19 05:55:42;;;;;;;0.00;0.00;;;4.00;99.90;;;;;;5058201;28;20041;-78
2022/03/19 05:58:07;;;;;;;0.13;0.13;;;4.00;99.90;;;;;;5038326;28;20116;-78
2022/03/19 06:00:33;;;;;;;0.00;0.00;;;4.10;99.90;;;;;;5043440;28;20518;-78
2022/03/19 06:02:58;;;;;;;0.08;0.08;;;4.10;99.90;;;;;;5044703;28;20538;-78
2022/03/19 06:05:24;;;;;;;0.00;0.00;;;4.10;99.90;;;;;;5046637;28;20949;-78
2022/03/19 06:07:50;;;;;;;0.15;0.15;;;4.10;99.90;;;;;;5040784;28;20470;-79
2022/03/19 06:10:15;;;;;;;1.55;0.25;;;4.10;99.90;;;;;;5040380;28;21379;-78
2022/03/19 06:12:43;;;;;;;0.40;0.20;;;4.10;99.90;;;;;;5039190;28;20043;-78
2022/03/19 06:15:09;;;;;;;0.10;0.10;;;4.20;99.90;;;;;;5024735;28;20110;-78
2022/03/19 06:17:35;;;;;;;0.00;0.00;;;4.20;99.90;;;;;;5038198;28;20124;-78
2022/03/19 06:20:00;;;;;;;0.63;0.15;;;4.20;99.90;;;;;;5043673;28;20119;-78
2022/03/19 06:22:26;;;;;;;0.00;0.00;;;4.20;99.90;;;;;;5041315;28;20116;-79
2022/03/19 06:24:51;;;;;;;0.52;0.20;;;4.20;99.90;;;;;;5057488;28;20075;-78
2022/03/19 06:27:17;;;;;;;1.38;0.40;;;4.30;99.90;;;;;;5042359;28;20044;-75
2022/03/19 06:29:42;;;;;;;0.25;0.10;;;4.30;99.90;;;;;;5057107;28;20041;-78
2022/03/19 06:32:08;;;;;;;0.20;0.20;;;4.30;99.90;;;;;;5056851;28;20041;-78
2022/03/19 06:34:34;;;;;;;1.17;0.47;;;4.30;99.90;;;;;;5036653;28;20040;-77
2022/03/19 06:39:43;;;;;;;0.15;0.15;;;4.40;99.90;;;;;;5057967;28;20053;-78
2022/03/19 06:42:09;;;;;;;0.65;0.10;;;4.40;99.90;;;;;;5035701;28;20029;-77
2022/03/19 06:44:35;;;;;;;0.90;0.38;;;4.40;99.90;;;;;;5056453;28;20145;-78
2022/03/19 06:47:01;;;;;;;0.10;0.10;;;4.40;99.90;;;;;;5033791;28;20071;-78
2022/03/19 06:49:28;;;;;;;0.57;0.30;;;4.50;99.90;;;;;;5038520;28;20722;-78
2022/03/19 06:51:54;;;;;;;0.05;0.05;;;4.50;99.90;;;;;;5056038;28;20194;-79
2022/03/19 06:54:20;;;;;;;0.17;0.10;;;4.50;99.90;;;;;;5026504;28;20187;-79
2022/03/19 06:56:46;;;;;;;0.55;0.20;;;4.60;99.90;;;;;;5053923;28;20041;-78
2022/03/19 06:59:11;;;;;;;0.40;0.30;;;4.60;99.90;;;;;;5039277;28;20065;-78
2022/03/19 07:01:37;;;;;;;0.85;0.43;;;4.60;99.90;;;;;;5022884;28;20048;-78
2022/03/19 07:04:03;;;;;;;1.15;0.40;;;4.60;99.90;;;;;;5042300;28;20048;-78
2022/03/19 07:06:30;;;;;;;0.10;0.10;;;4.70;99.90;;;;;;5025671;28;20038;-85
2022/03/19 07:08:55;;;;;;;0.28;0.28;;;4.70;99.90;;;;;;5035341;28;20037;-78
2022/03/19 07:11:21;;;;;;;0.13;0.13;;;4.80;99.90;;;;;;5045547;28;20067;-78
2022/03/19 07:13:46;;;;;;;0.00;0.00;;;4.80;99.90;;;;;;5038879;28;20036;-78
2022/03/19 07:16:15;;;;;;;0.20;0.20;;;4.80;99.90;;;;;;5040230;28;20053;-78
2022/03/19 07:18:40;;;;;;;0.47;0.20;;;4.80;99.90;;;;;;5040633;28;20560;-78
2022/03/19 07:21:06;;;;;;;0.20;0.10;;;4.90;99.90;;;;;;5059287;28;20136;-78
2022/03/19 07:23:31;;;;;;;2.65;0.43;;;4.90;99.90;;;;;;5027763;28;20056;-79
2022/03/19 07:25:59;;;;;;;0.10;0.05;;;5.00;99.90;;;;;;5062002;28;20043;-78
2022/03/19 07:28:26;;;;;;;0.30;0.28;;;5.00;99.90;;;;;;5044367;28;20125;-79
2022/03/19 07:30:52;;;;;;;0.03;0.03;;;5.00;99.90;;;;;;5030194;28;20550;-78
2022/03/19 07:33:17;;;;;;;0.40;0.40;;;5.10;99.90;;;;;;5057959;28;20131;-79
2022/03/19 07:35:43;;;;;;;0.17;0.17;;;5.20;99.90;;;;;;5044067;28;20124;-79
2022/03/19 07:38:11;;;;;;;1.40;0.40;;;5.20;99.90;;;;;;5082335;28;20032;-78
2022/03/19 07:43:22;;;;;;;0.30;0.20;;;5.30;99.90;;;;;;5070322;28;20037;-78
2022/03/19 07:45:49;;;;;;;0.00;0.00;;;5.30;99.90;;;;;;5069609;28;20036;-78
2022/03/19 07:48:15;;;;;;;0.38;0.30;;;5.30;99.90;;;;;;5082332;28;20037;-78
2022/03/19 07:50:41;;;;;;;0.13;0.13;;;5.40;99.90;;;;;;5045661;28;20045;-78
2022/03/19 07:53:07;;;;;;;0.98;0.30;;;5.40;99.90;;;;;;5048908;28;20063;-78
2022/03/19 07:55:33;;;;;;;0.10;0.10;;;5.50;99.90;;;;;;5047226;28;20052;-78
2022/03/19 07:57:59;;;;;;;0.00;0.00;;;5.50;99.90;;;;;;5049583;28;20055;-78
2022/03/19 08:00:25;;;;;;;0.10;0.10;;;5.60;99.90;;;;;;5049488;28;20037;-78
2022/03/19 08:02:51;;;;;;;2.50;0.22;;;5.70;99.90;;;;;;5049351;28;20036;-78
2022/03/19 08:05:17;;;;;;;0.20;0.20;;;5.70;99.90;;;;;;5049303;28;20033;-78
2022/03/19 08:07:43;;;;;;;0.10;0.10;;;5.70;99.90;;;;;;5062655;28;20091;-78
2022/03/19 08:10:10;;;;;;;0.65;0.28;;;5.80;99.90;;;;;;5048749;28;20037;-78
2022/03/19 08:12:36;;;;;;;0.20;0.17;;;5.90;99.90;;;;;;5047992;28;20041;-78
2022/03/19 08:15:04;;;;;;;0.20;0.10;;;5.90;99.90;;;;;;5032963;28;20049;-78
2022/03/19 08:17:30;;;;;;;0.10;0.10;;;6.00;99.90;;;;;;5032124;28;20045;-78
2022/03/19 08:19:59;;;;;;;0.17;0.10;;;6.00;99.90;;;;;;5048963;28;20304;-78
2022/03/19 08:22:28;;;;;;;0.17;0.13;;;6.10;99.90;;;;;;5065170;28;20083;-78
2022/03/19 08:24:54;;;;;;;0.13;0.10;;;6.10;99.90;;;;;;5029708;28;20115;-78
2022/03/19 08:27:22;;;;;;;0.22;0.17;;;6.20;99.90;;;;;;5047936;28;20127;-78
2022/03/19 08:29:47;;;;;;;0.00;0.00;;;6.30;99.90;;;;;;5048806;28;20376;-78
2022/03/19 08:32:13;;;;;;;0.77;0.22;;;6.30;99.90;;;;;;5048063;28;20244;-78
2022/03/19 08:34:39;;;;;;;0.10;0.05;;;6.30;99.90;;;;;;5032435;28;20092;-78
2022/03/19 08:37:05;;;;;;;0.00;0.00;;;6.40;99.90;;;;;;5046844;28;20037;-78
2022/03/19 08:42:15;;;;;;;0.35;0.17;;;6.40;99.90;;;;;;5038836;28;20033;-80
2022/03/19 08:44:41;;;;;;;0.10;0.10;;;6.50;99.90;;;;;;5039013;28;20033;-78
2022/03/19 08:47:06;;;;;;;0.00;0.00;;;6.60;99.90;;;;;;5023724;28;20128;-78
2022/03/19 08:49:32;;;;;;;0.98;0.30;;;6.60;99.90;;;;;;5038224;28;20065;-79
2022/03/19 08:51:58;;;;;;;0.05;0.05;;;6.70;99.90;;;;;;5041992;28;20066;-78
2022/03/19 08:54:23;;;;;;;0.03;0.03;;;6.70;99.90;;;;;;5044191;28;20041;-78
2022/03/19 08:56:51;;;;;;;0.05;0.03;;;6.70;99.90;;;;;;5037763;28;20575;-78
2022/03/19 08:59:17;;;;;;;0.05;0.05;;;6.80;99.90;;;;;;5054859;28;20037;-78
2022/03/19 09:01:45;;;;;;;0.32;0.32;;;6.80;99.90;;;;;;5039789;28;20036;-77
2022/03/19 09:04:11;;;;;;;1.05;0.20;;;6.90;99.90;;;;;;5024966;28;20041;-77
2022/03/19 09:06:38;;;;;;;0.10;0.10;;;7.00;99.90;;;;;;5054453;28;20105;-78
2022/03/19 09:09:04;;;;;;;0.00;0.00;;;7.00;99.90;;;;;;5054028;28;20048;-78
2022/03/19 09:11:32;;;;;;;0.57;0.10;;;7.00;99.90;;;;;;5023850;28;20139;-77
2022/03/19 09:13:58;;;;;;;0.10;0.10;;;7.10;99.90;;;;;;5035857;28;20572;-77
2022/03/19 09:16:26;;;;;;;0.20;0.20;;;7.10;99.90;;;;;;5034523;28;20074;-78
2022/03/19 09:18:52;;;;;;;0.00;0.00;;;7.20;99.90;;;;;;5038906;28;20041;-78
2022/03/19 09:21:18;;;;;;;0.00;0.00;;;7.20;99.90;;;;;;5040817;28;20048;-77
2022/03/19 09:23:49;;;;;;;0.10;0.10;;;7.30;99.90;;;;;;5040052;28;20059;-78
2022/03/19 09:26:16;;;;;;;0.00;0.00;;;7.40;99.90;;;;;;5041342;28;20048;-77
2022/03/19 09:28:42;;;;;;;0.25;0.20;;;7.40;99.90;;;;;;5035222;28;20553;-77
2022/03/19 09:31:08;;;;;;;1.85;0.32;;;7.40;99.90;;;;;;5040662;28;20509;-77
2022/03/19 09:33:33;;;;;;;0.00;0.00;;;7.50;99.90;;;;;;5040250;28;20079;-77
2022/03/19 09:36:01;;;;;;;0.40;0.40;;;7.50;99.90;;;;;;5025769;28;20072;-77
2022/03/19 09:38:30;;;;;;;0.20;0.20;;;7.50;99.80;;;;;;5057271;28;20072;-77
2022/03/19 09:40:56;;;;;;;0.10;0.10;;;7.60;98.90;;;;;;5038265;28;20033;-78
2022/03/19 09:43:26;;;;;;;0.25;0.15;;;7.60;98.90;;;;;;5058351;28;20037;-77
2022/03/19 09:45:53;;;;;;;0.05;0.05;;;7.70;96.70;;;;;;5052841;28;20564;-77
2022/03/19 09:48:20;;;;;;;0.17;0.17;;;7.70;95.90;;;;;;5041245;28;20063;-77
2022/03/19 09:50:50;;;;;;;0.57;0.17;;;7.80;96.70;;;;;;5022379;28;20486;-77
2022/03/19 09:53:19;;;;;;;0.68;0.20;;;7.80;97.60;;;;;;5035165;28;20051;-77
2022/03/19 09:55:45;;;;;;;0.00;0.00;;;7.80;98.50;;;;;;5041086;28;20052;-78
2022/03/19 09:58:12;;;;;;;0.65;0.40;;;7.80;98.00;;;;;;5038351;28;20033;-77
2022/03/19 10:00:37;;;;;;;0.00;0.00;;;7.90;96.30;;;;;;5039236;28;20055;-77
2022/03/19 10:03:07;;;;;;;0.20;0.13;;;7.90;96.60;;;;;;5038479;28;20029;-78
2022/03/19 10:08:36;;;;;;;0.00;0.00;;;8.00;96.00;;;;;;5038981;28;20037;-81
2022/03/19 10:11:11;;;;;;;0.00;0.00;;;8.00;96.90;;;;;;5024045;28;20129;-82
2022/03/19 10:13:49;;;;;;;0.52;0.22;;;8.00;97.20;;;;;;5045311;28;20036;-81
2022/03/19 10:16:26;;;;;;;0.00;0.00;;;8.00;96.30;;;;;;5041547;28;20143;-82
2022/03/19 10:18:57;;;;;;;0.00;0.00;;;8.10;94.80;;;;;;5041193;28;20033;-77
2022/03/19 10:21:25;;;;;;;0.15;0.10;;;8.10;96.70;;;;;;5024869;28;20041;-77
2022/03/19 10:23:51;;;;;;;0.10;0.10;;;8.20;93.50;;;;;;5043312;28;20512;-76
2022/03/19 10:26:31;;;;;;;0.00;0.00;;;8.20;94.30;;;;;;5041706;28;20064;-77
2022/03/19 10:29:06;;;;;;;0.32;0.08;;;8.30;92.70;;;;;;5037427;28;20068;-78
2022/03/19 10:31:58;;;;;;;0.00;0.00;;;8.40;91.70;;;;;;5058789;28;20491;-77
2022/03/19 10:34:23;;;;;;;0.00;0.00;;;8.40;90.00;;;;;;5025518;28;20151;-77
2022/03/19 10:36:49;;;;;;;0.00;0.00;;;8.40;93.30;;;;;;5036717;28;20041;-77
2022/03/19 10:39:20;;;;;;;0.08;0.08;;;8.40;94.20;;;;;;5040836;28;20429;-77
2022/03/19 10:41:46;;;;;;;0.00;0.00;;;8.40;93.00;;;;;;5039528;28;20517;-77
2022/03/19 10:44:17;;;;;;;0.00;0.00;;;8.50;91.60;;;;;;5055864;28;20056;-77
2022/03/19 10:46:49;;;;;;;0.00;0.00;;;8.60;91.00;;;;;;5056475;28;21761;-77
2022/03/19 10:49:16;;;;;;;0.20;0.10;;;8.60;92.50;;;;;;5058410;28;20631;-77
2022/03/19 10:51:47;;;;;;;0.28;0.10;;;8.60;91.90;;;;;;5040135;28;20041;-77
2022/03/19 10:54:14;;;;;;;0.30;0.20;;;8.70;90.80;;;;;;5038793;28;20051;-77
2022/03/19 10:56:41;;;;;;;0.10;0.10;;;8.70;91.60;;;;;;5025309;28;20033;-77
2022/03/19 10:59:07;;;;;;;0.00;0.00;;;8.70;91.10;;;;;;5041700;28;20029;-77
2022/03/19 11:01:38;;;;;;;0.38;0.20;;;8.80;92.30;;;;;;5037679;28;20040;-77
2022/03/19 11:04:06;;;;;;;0.90;0.20;;;8.80;91.40;;;;;;5055503;28;20037;-77
2022/03/19 11:06:39;;;;;;;0.05;0.00;;;8.90;86.70;;;;;;5057485;28;20036;-77
2022/03/19 11:09:09;;;;;;;0.00;0.00;;;8.90;87.00;;;;;;5036333;28;20431;-77
2022/03/19 11:11:53;;;;;;;0.10;0.10;;;8.90;86.00;;;;;;5040272;28;20380;-77
2022/03/19 11:14:24;;;;;;;0.10;0.10;;;9.00;76.80;;;;;;5037502;28;20041;-77
2022/03/19 11:17:27;;;;;;;0.00;0.00;;;9.10;82.80;;;;;;5019087;28;20041;-77
2022/03/19 11:19:59;;;;;;;0.20;0.03;;;9.10;72.80;;;;;;5030937;28;20049;-77
2022/03/19 11:22:26;;;;;;;0.10;0.10;;;9.20;78.30;;;;;;5016448;28;20508;-77
2022/03/19 11:25:19;;;;;;;0.00;0.00;;;9.20;84.50;;;;;;5036195;28;20040;-77
2022/03/19 11:27:48;;;;;;;0.10;0.10;;;9.30;75.80;;;;;;5034941;28;20044;-77
2022/03/19 11:30:32;;;;;;;0.10;0.10;;;9.30;78.90;;;;;;5020576;28;20037;-77
2022/03/19 11:33:05;;;;;;;0.00;0.00;;;9.30;75.10;;;;;;5032043;28;20041;-77
2022/03/19 11:35:36;;;;;;;0.00;0.00;;;9.40;74.60;;;;;;5037630;28;20052;-77
2022/03/19 11:38:20;;;;;;;0.45;0.10;;;9.50;76.00;;;;;;5038278;28;20029;-77
2022/03/19 11:40:50;;;;;;;0.05;0.00;;;9.50;81.10;;;;;;5035781;28;20490;-77
2022/03/19 11:43:35;;;;;;;0.30;0.10;;;9.60;83.20;;;;;;5039357;28;20651;-77
2022/03/19 11:46:11;;;;;;;0.00;0.00;;;9.60;72.80;;;;;;5037456;28;20395;-77
2022/03/19 11:48:36;;;;;;;0.00;0.00;;;9.60;77.10;;;;;;5049601;28;20482;-77
2022/03/19 11:51:20;;;;;;;0.98;0.30;;;9.60;77.50;;;;;;5049935;28;20109;-77
2022/03/19 11:53:57;;;;;;;0.15;0.15;;;9.70;75.60;;;;;;5034435;28;20461;-77
2022/03/19 11:56:26;;;;;;;0.00;0.00;;;9.70;76.00;;;;;;5018803;28;20061;-77
2022/03/19 11:58:52;;;;;;;0.00;0.00;;;9.70;76.70;;;;;;5051307;28;20398;-77
2022/03/19 12:01:38;;;;;;;0.20;0.00;;;9.70;74.70;;;;;;5036594;28;20037;-77
2022/03/19 12:04:13;;;;;;;1.80;0.52;;;9.80;71.60;;;;;;5041096;28;20418;-77
2022/03/19 12:06:50;;;;;;;0.30;0.20;;;9.80;72.70;;;;;;5037615;28;20468;-77
2022/03/19 12:09:15;;;;;;;0.35;0.28;;;9.80;66.20;;;;;;5039093;28;20049;-77
2022/03/19 12:12:01;;;;;;;0.05;0.00;;;9.90;68.10;;;;;;5039117;28;20048;-77
2022/03/19 12:14:26;;;;;;;0.00;0.00;;;9.90;69.70;;;;;;5037453;28;20139;-77
2022/03/19 12:16:52;;;;;;;0.10;0.10;;;10.00;68.10;;;;;;5038726;28;20136;-77
2022/03/19 12:19:47;;;;;;;0.00;0.00;;;10.00;70.60;;;;;;5037838;28;20041;-77
2022/03/19 12:22:12;;;;;;;0.00;0.00;;;9.90;71.00;;;;;;5037142;28;20037;-77
2022/03/19 12:24:47;;;;;;;0.00;0.00;;;9.90;73.60;;;;;;5036805;28;20114;-77
2022/03/19 12:27:17;;;;;;;0.15;0.08;;;10.00;72.20;;;;;;5039234;28;20037;-77
2022/03/19 12:29:43;;;;;;;0.00;0.00;;;10.00;74.70;;;;;;5057798;28;20037;-77
2022/03/19 12:32:09;;;;;;;0.10;0.10;;;10.10;71.50;;;;;;5039279;28;20037;-77
2022/03/19 12:34:35;;;;;;;0.17;0.15;;;10.10;70.70;;;;;;5038679;28;20545;-77
2022/03/19 12:37:02;;;;;;;0.03;0.00;;;10.10;67.70;;;;;;5037716;28;20049;-77
2022/03/19 12:39:29;;;;;;;0.00;0.00;;;10.10;66.90;;;;;;5041596;28;20521;-77
2022/03/19 12:41:55;;;;;;;0.00;0.00;;;10.20;66.20;;;;;;5040103;28;20470;-77
2022/03/19 12:44:29;;;;;;;0.00;0.00;;;10.20;65.90;;;;;;5039943;28;20127;-77
2022/03/19 12:46:59;;;;;;;0.00;0.00;;;10.20;67.10;;;;;;5039669;28;20101;-77
2022/03/19 12:49:26;;;;;;;0.10;0.03;;;10.20;70.40;;;;;;5041531;28;20040;-76
2022/03/19 12:51:52;;;;;;;0.22;0.10;;;10.20;74.00;;;;;;5040852;28;20079;-78
2022/03/19 12:54:27;;;;;;;0.00;0.00;;;10.20;70.90;;;;;;5028646;28;20033;-77
2022/03/19 12:57:14;;;;;;;1.13;0.20;;;10.30;71.70;;;;;;5039808;28;20805;-77
2022/03/19 12:59:55;;;;;;;0.00;0.00;;;10.30;69.00;;;;;;5029427;28;20063;-77
2022/03/19 13:02:22;;;;;;;0.17;0.10;;;10.30;67.90;;;;;;5042329;28;20429;-78
2022/03/19 13:04:48;;;;;;;0.00;0.00;;;10.30;70.30;;;;;;5044157;28;20035;-77
2022/03/19 13:07:17;;;;;;;0.00;0.00;;;10.30;71.00;;;;;;5044464;28;20510;-77
2022/03/19 13:09:42;;;;;;;0.00;0.00;;;10.30;68.60;;;;;;5040871;28;20033;-77
2022/03/19 13:12:14;;;;;;;0.03;0.00;;;10.30;65.40;;;;;;5029195;28;20032;-77
2022/03/19 13:14:47;;;;;;;0.10;0.00;;;10.30;66.00;;;;;;5024934;28;20571;-77